createdAt,value
2022-09-03T00:02:04.331Z,14.03
2022-09-03T00:04:43.989Z,14.01
2022-09-03T00:08:04.186Z,13.98
2022-09-03T00:10:51.810Z,13.93
2022-09-03T00:13:50.307Z,13.89
2022-09-03T00:16:20.563Z,13.84
2022-09-03T00:19:00.508Z,13.79
2022-09-03T00:21:48.635Z,13.74
2022-09-03T00:24:18.316Z,13.68
2022-09-03T00:26:47.312Z,13.62
2022-09-03T00:29:17.731Z,13.58
2022-09-03T00:31:48.037Z,13.52
2022-09-03T00:34:27.310Z,13.47
2022-09-03T00:36:53.925Z,13.43
2022-09-03T00:39:23.751Z,13.38
2022-09-03T00:42:12.188Z,13.33
2022-09-03T00:44:45.176Z,13.27
2022-09-03T00:47:18.365Z,13.22
2022-09-03T00:49:57.087Z,13.17
2022-09-03T00:52:44.820Z,13.14
2022-09-03T00:55:44.478Z,13.11
2022-09-03T00:58:29.710Z,13.10
2022-09-03T01:00:56.343Z,13.07
2022-09-03T01:03:32.302Z,13.03
2022-09-03T01:06:14.206Z,13.00
2022-09-03T01:09:02.770Z,12.95
2022-09-03T01:11:51.314Z,12.90
2022-09-03T01:14:54.390Z,12.83
2022-09-03T01:17:30.146Z,12.75
2022-09-03T01:20:03.846Z,12.70
2022-09-03T01:22:49.246Z,12.65
2022-09-03T01:25:40.840Z,12.60
2022-09-03T01:28:20.116Z,12.54
2022-09-03T01:30:57.235Z,12.48
2022-09-03T01:34:08.817Z,12.40
2022-09-03T01:36:47.270Z,12.32
2022-09-03T01:39:26.876Z,12.26
2022-09-03T01:42:30.106Z,12.20
2022-09-03T01:44:58.285Z,12.14
2022-09-03T01:47:34.747Z,12.10
2022-09-03T01:50:19.915Z,12.03
2022-09-03T01:52:52.507Z,11.97
2022-09-03T01:55:44.541Z,11.92
2022-09-03T01:58:32.668Z,11.85
2022-09-03T02:01:07.389Z,11.79
2022-09-03T02:03:40.885Z,11.73
2022-09-03T02:06:09.894Z,11.67
2022-09-03T02:08:36.340Z,11.61
2022-09-03T02:11:06.972Z,11.56
2022-09-03T02:13:45.986Z,11.52
2022-09-03T02:16:19.836Z,11.47
2022-09-03T02:18:50.547Z,11.42
2022-09-03T02:21:19.876Z,11.35
2022-09-03T02:23:48.117Z,11.30
2022-09-03T02:26:18.749Z,11.26
2022-09-03T02:28:45.780Z,11.23
2022-09-03T02:31:12.390Z,11.20
2022-09-03T02:33:42.057Z,11.16
2022-09-03T02:36:11.659Z,11.11
2022-09-03T02:38:40.639Z,11.01
2022-09-03T02:41:07.972Z,10.88
2022-09-03T02:43:40.586Z,10.79
2022-09-03T02:46:10.437Z,10.73
2022-09-03T02:48:37.205Z,10.69
2022-09-03T02:51:13.944Z,10.63
2022-09-03T02:53:42.386Z,10.59
2022-09-03T02:56:09.302Z,10.58
2022-09-03T02:58:35.839Z,10.54
2022-09-03T03:01:03.961Z,10.49
2022-09-03T03:03:31.286Z,10.45
2022-09-03T03:06:00.453Z,10.39
2022-09-03T03:08:28.640Z,10.34
2022-09-03T03:11:00.346Z,10.30
2022-09-03T03:13:27.851Z,10.25
2022-09-03T03:15:59.207Z,10.24
2022-09-03T03:18:25.997Z,10.25
2022-09-03T03:20:52.690Z,10.25
2022-09-03T03:23:19.211Z,10.25
2022-09-03T03:25:46.386Z,10.26
2022-09-03T03:28:13.513Z,10.25
2022-09-03T03:30:42.301Z,10.25
2022-09-03T03:33:10.076Z,10.23
2022-09-03T03:35:36.702Z,10.22
2022-09-03T03:38:04.773Z,10.21
2022-09-03T03:40:31.282Z,10.20
2022-09-03T03:42:58.683Z,10.19
2022-09-03T03:45:25.405Z,10.18
2022-09-03T03:47:52.768Z,10.16
2022-09-03T03:50:20.624Z,10.14
2022-09-03T03:52:48.390Z,10.12
2022-09-03T03:55:15.975Z,10.10
2022-09-03T03:57:42.585Z,10.09
2022-09-03T04:00:09.843Z,10.08
2022-09-03T04:02:42.771Z,10.07
2022-09-03T04:05:09.789Z,10.05
2022-09-03T04:07:37.034Z,10.04
2022-09-03T04:10:04.085Z,10.03
2022-09-03T04:12:30.603Z,10.02
2022-09-03T04:14:57.140Z,10.00
2022-09-03T04:17:25.417Z,9.99
2022-09-03T04:19:53.292Z,9.99
2022-09-03T04:22:20.430Z,9.98
2022-09-03T04:24:47.065Z,9.98
2022-09-03T04:27:13.625Z,9.99
2022-09-03T04:29:40.140Z,10.01
2022-09-03T04:32:25.746Z,10.04
2022-09-03T04:34:52.366Z,10.08
2022-09-03T04:37:19.921Z,10.12
2022-09-03T04:39:46.552Z,10.16
2022-09-03T04:42:13.209Z,10.19
2022-09-03T04:44:40.720Z,10.23
2022-09-03T04:47:07.605Z,10.28
2022-09-03T04:49:34.547Z,10.35
2022-09-03T04:52:02.106Z,10.40
2022-09-03T04:54:29.226Z,10.46
2022-09-03T04:56:56.915Z,10.55
2022-09-03T04:59:23.470Z,10.64
2022-09-03T05:01:52.474Z,10.75
2022-09-03T05:04:19.699Z,10.87
2022-09-03T05:06:46.223Z,11.00
2022-09-03T05:09:12.965Z,11.14
2022-09-03T05:11:39.708Z,11.26
2022-09-03T05:14:06.517Z,11.40
2022-09-03T05:16:33.121Z,11.52
2022-09-03T05:19:01.411Z,11.65
2022-09-03T05:21:29.328Z,11.78
2022-09-03T05:23:56.286Z,11.93
2022-09-03T05:26:31.723Z,12.10
2022-09-03T05:29:01.018Z,12.25
2022-09-03T05:31:31.474Z,12.40
2022-09-03T05:34:00.983Z,12.53
2022-09-03T05:36:30.556Z,12.67
2022-09-03T05:38:58.834Z,12.81
2022-09-03T05:41:27.119Z,12.95
2022-09-03T05:44:00.676Z,13.08
2022-09-03T05:46:32.467Z,13.22
2022-09-03T05:49:00.844Z,13.34
2022-09-03T05:51:28.505Z,13.42
2022-09-03T05:53:55.762Z,13.49
2022-09-03T05:56:24.665Z,13.59
2022-09-03T05:58:53.544Z,13.69
2022-09-03T06:01:21.105Z,13.70
2022-09-03T06:03:54.394Z,13.67
2022-09-03T06:06:25.958Z,13.63
2022-09-03T06:08:58.020Z,13.57
2022-09-03T06:11:30.646Z,13.50
2022-09-03T06:14:00.600Z,13.45
2022-09-03T06:16:31.560Z,13.45
2022-09-03T06:19:00.535Z,13.47
2022-09-03T06:21:27.688Z,13.58
2022-09-03T06:24:00.094Z,13.77
2022-09-03T06:26:28.445Z,13.96
2022-09-03T06:28:56.607Z,14.14
2022-09-03T06:31:23.889Z,14.30
2022-09-03T06:33:51.855Z,14.42
2022-09-03T06:36:19.183Z,14.58
2022-09-03T06:38:47.158Z,14.74
2022-09-03T06:41:21.368Z,14.91
2022-09-03T06:43:48.925Z,15.08
2022-09-03T06:46:18.501Z,15.21
2022-09-03T06:48:46.205Z,15.33
2022-09-03T06:51:19.197Z,15.44
2022-09-03T06:53:51.248Z,15.55
2022-09-03T06:56:25.769Z,15.62
2022-09-03T06:58:55.848Z,15.63
2022-09-03T07:01:27.938Z,15.61
2022-09-03T07:04:00.666Z,15.58
2022-09-03T07:06:32.922Z,15.55
2022-09-03T07:09:00.266Z,15.60
2022-09-03T07:11:30.558Z,15.75
2022-09-03T07:13:58.793Z,15.92
2022-09-03T07:16:31.473Z,16.05
2022-09-03T07:18:58.279Z,16.18
2022-09-03T07:21:28.000Z,16.25
2022-09-03T07:23:55.983Z,16.29
2022-09-03T07:26:28.754Z,16.34
2022-09-03T07:28:56.491Z,16.41
2022-09-03T07:31:26.343Z,16.51
2022-09-03T07:33:56.194Z,16.58
2022-09-03T07:36:24.990Z,16.65
2022-09-03T07:38:55.734Z,16.72
2022-09-03T07:41:28.553Z,16.76
2022-09-03T07:43:57.163Z,16.78
2022-09-03T07:46:27.297Z,16.80
2022-09-03T07:48:56.837Z,16.84
2022-09-03T07:51:26.166Z,16.88
2022-09-03T07:53:55.039Z,16.94
2022-09-03T07:56:22.185Z,16.99
2022-09-03T07:58:48.915Z,17.05
2022-09-03T08:01:21.726Z,17.10
2022-09-03T08:03:50.761Z,17.14
2022-09-03T08:06:19.584Z,17.22
2022-09-03T08:08:46.346Z,17.30
2022-09-03T08:11:15.844Z,17.39
2022-09-03T08:14:06.390Z,17.48
2022-09-03T08:16:37.419Z,17.56
2022-09-03T08:19:05.035Z,17.62
2022-09-03T08:21:31.869Z,17.70
2022-09-03T08:24:02.626Z,17.82
2022-09-03T08:26:41.496Z,17.93
2022-09-03T08:29:08.993Z,18.03
2022-09-03T08:31:36.530Z,18.11
2022-09-03T08:34:06.410Z,18.17
2022-09-03T08:36:37.206Z,18.20
2022-09-03T08:39:09.214Z,18.23
2022-09-03T08:41:50.949Z,18.26
2022-09-03T08:44:20.466Z,18.31
2022-09-03T08:47:05.326Z,18.38
2022-09-03T08:49:38.709Z,18.47
2022-09-03T08:52:16.531Z,18.55
2022-09-03T08:54:43.871Z,18.62
2022-09-03T08:57:10.815Z,18.66
2022-09-03T08:59:37.467Z,18.70
2022-09-03T09:02:19.077Z,18.73
2022-09-03T09:05:14.162Z,18.75
2022-09-03T09:07:50.848Z,18.77
2022-09-03T09:10:24.126Z,18.83
2022-09-03T09:13:01.295Z,18.93
2022-09-03T09:15:50.756Z,19.04
2022-09-03T09:18:30.748Z,19.16
2022-09-03T09:21:27.400Z,19.20
2022-09-03T09:23:57.994Z,19.26
2022-09-03T09:26:24.949Z,19.31
2022-09-03T09:28:58.059Z,19.37
2022-09-03T09:31:25.247Z,19.48
2022-09-03T09:33:52.047Z,19.58
2022-09-03T09:36:19.271Z,19.63
2022-09-03T09:38:47.148Z,19.68
2022-09-03T09:41:27.583Z,19.74
2022-09-03T09:44:04.842Z,19.73
2022-09-03T09:46:42.133Z,19.73
2022-09-03T09:49:22.327Z,19.71
2022-09-03T09:51:49.582Z,19.69
2022-09-03T09:54:27.895Z,19.67
2022-09-03T09:57:06.511Z,19.70
2022-09-03T09:59:33.963Z,19.74
2022-09-03T10:02:13.839Z,19.74
2022-09-03T10:04:49.460Z,19.76
2022-09-03T10:07:32.003Z,19.80
2022-09-03T10:10:21.497Z,19.86
2022-09-03T10:12:58.937Z,19.89
2022-09-03T10:15:27.459Z,19.91
2022-09-03T10:17:56.937Z,19.93
2022-09-03T10:20:47.228Z,19.93
2022-09-03T10:23:18.662Z,19.94
2022-09-03T10:25:55.850Z,19.96
2022-09-03T10:28:26.938Z,19.99
2022-09-03T10:30:56.555Z,20.04
2022-09-03T10:33:27.948Z,20.05
2022-09-03T10:36:12.426Z,20.08
2022-09-03T10:38:40.164Z,20.14
2022-09-03T10:41:29.951Z,20.17
2022-09-03T10:44:14.816Z,20.21
2022-09-03T10:46:54.393Z,20.26
2022-09-03T10:49:31.958Z,20.31
2022-09-03T10:52:09.655Z,20.33
2022-09-03T10:54:38.914Z,20.35
2022-09-03T10:57:19.629Z,20.40
2022-09-03T11:00:10.627Z,20.46
2022-09-03T11:03:14.706Z,20.56
2022-09-03T11:06:02.711Z,20.74
2022-09-03T11:08:46.615Z,20.91
2022-09-03T11:11:32.742Z,21.14
2022-09-03T11:14:10.507Z,21.29
2022-09-03T11:16:43.825Z,21.40
2022-09-03T11:19:15.260Z,21.51
2022-09-03T11:21:43.585Z,21.59
2022-09-03T11:24:22.049Z,21.65
2022-09-03T11:27:07.765Z,21.66
2022-09-03T11:30:02.832Z,21.74
2022-09-03T11:32:49.406Z,21.89
2022-09-03T11:35:29.387Z,22.05
2022-09-03T11:38:00.372Z,22.11
2022-09-03T11:40:38.481Z,22.11
2022-09-03T11:43:06.939Z,22.11
2022-09-03T11:45:37.135Z,22.08
2022-09-03T11:48:18.157Z,22.06
2022-09-03T11:50:53.754Z,22.04
2022-09-03T11:53:20.159Z,22.00
2022-09-03T11:55:59.699Z,21.96
2022-09-03T11:58:34.383Z,21.91
2022-09-03T12:01:10.015Z,21.91
2022-09-03T12:04:03.155Z,21.99
2022-09-03T12:06:42.800Z,22.11
2022-09-03T12:09:16.084Z,22.21
2022-09-03T12:12:04.019Z,22.30
2022-09-03T12:14:50.471Z,22.43
2022-09-03T12:18:13.172Z,22.48
2022-09-03T12:20:40.844Z,22.45
2022-09-03T12:23:11.416Z,22.42
2022-09-03T12:25:47.224Z,22.40
2022-09-03T12:28:19.060Z,22.38
2022-09-03T12:30:46.874Z,22.35
2022-09-03T12:33:17.525Z,22.30
2022-09-03T12:36:00.463Z,22.28
2022-09-03T12:38:44.471Z,22.34
2022-09-03T12:41:29.271Z,22.42
2022-09-03T12:43:57.870Z,22.43
2022-09-03T12:46:33.736Z,22.38
2022-09-03T12:51:56.042Z,22.19
2022-09-03T12:54:24.293Z,22.13
2022-09-03T12:56:57.089Z,22.11
2022-09-03T12:59:26.292Z,22.13
2022-09-03T13:01:55.933Z,22.16
2022-09-03T13:04:34.324Z,22.23
2022-09-03T13:07:12.994Z,22.32
2022-09-03T13:09:40.851Z,22.36
2022-09-03T13:12:07.818Z,22.35
2022-09-03T13:14:44.899Z,22.30
2022-09-03T13:17:52.724Z,22.27
2022-09-03T13:20:25.301Z,22.27
2022-09-03T13:23:40.368Z,22.31
2022-09-03T13:26:19.542Z,22.34
2022-09-03T13:29:19.684Z,22.33
2022-09-03T13:31:53.344Z,22.30
2022-09-03T13:34:32.366Z,22.24
2022-09-03T13:37:31.705Z,22.21
2022-09-03T13:40:00.314Z,22.13
2022-09-03T13:42:30.838Z,22.05
2022-09-03T13:45:10.889Z,21.95
2022-09-03T13:48:04.436Z,21.90
2022-09-03T13:50:39.496Z,21.85
2022-09-03T13:53:18.729Z,21.84
2022-09-03T13:55:52.488Z,21.85
2022-09-03T13:58:31.905Z,21.85
2022-09-03T14:00:58.306Z,21.89
2022-09-03T14:03:49.636Z,21.92
2022-09-03T14:06:46.723Z,21.98
2022-09-03T14:09:50.962Z,22.05
2022-09-03T14:12:46.345Z,22.08
2022-09-03T14:15:34.482Z,22.06
2022-09-03T14:18:38.395Z,22.00
2022-09-03T14:21:09.749Z,21.94
2022-09-03T14:24:01.448Z,21.89
2022-09-03T14:26:39.207Z,21.88
2022-09-03T14:29:12.521Z,21.87
2022-09-03T14:32:07.220Z,21.87
2022-09-03T14:35:12.365Z,21.84
2022-09-03T14:37:50.955Z,21.76
2022-09-03T14:40:35.403Z,21.70
2022-09-03T14:43:20.621Z,21.59
2022-09-03T14:45:56.882Z,21.52
2022-09-03T14:48:54.399Z,21.46
2022-09-03T14:52:03.201Z,21.37
2022-09-03T14:54:47.856Z,21.26
2022-09-03T14:57:35.776Z,21.14
2022-09-03T15:00:08.101Z,21.05
2022-09-03T15:03:13.719Z,20.98
2022-09-03T15:05:43.210Z,20.88
2022-09-03T15:09:00.571Z,20.83
2022-09-03T15:11:31.800Z,20.82
2022-09-03T15:14:42.046Z,20.85
2022-09-03T15:17:30.642Z,20.91
2022-09-03T15:20:15.937Z,20.99
2022-09-03T15:23:17.540Z,21.04
2022-09-03T15:25:53.052Z,21.05
2022-09-03T15:28:25.257Z,21.05
2022-09-03T15:31:00.195Z,21.03
2022-09-03T15:33:36.745Z,20.98
2022-09-03T15:36:22.040Z,20.93
2022-09-03T15:38:55.468Z,20.90
2022-09-03T15:41:44.964Z,20.85
2022-09-03T15:44:19.696Z,20.80
2022-09-03T15:47:05.207Z,20.75
2022-09-03T15:50:19.154Z,20.71
2022-09-03T15:53:05.629Z,20.65
2022-09-03T15:55:38.493Z,20.58
2022-09-03T15:58:46.881Z,20.51
2022-09-03T16:01:31.286Z,20.47
2022-09-03T16:04:20.452Z,20.45
2022-09-03T16:07:01.310Z,20.42
2022-09-03T16:09:57.511Z,20.35
2022-09-03T16:13:07.745Z,20.27
2022-09-03T16:15:44.432Z,20.19
2022-09-03T16:18:13.905Z,20.13
2022-09-03T16:20:47.911Z,20.07
2022-09-03T16:23:46.433Z,20.02
2022-09-03T16:26:21.226Z,19.97
2022-09-03T16:28:58.309Z,19.92
2022-09-03T16:31:44.399Z,19.87
2022-09-03T16:34:48.599Z,19.80
2022-09-03T16:37:28.786Z,19.73
2022-09-03T16:40:24.532Z,19.67
2022-09-03T16:43:01.417Z,19.60
2022-09-03T16:45:48.552Z,19.54
2022-09-03T16:48:52.927Z,19.48
2022-09-03T16:51:26.501Z,19.41
2022-09-03T16:54:12.643Z,19.34
2022-09-03T16:57:14.887Z,19.28
2022-09-03T17:00:07.800Z,19.21
2022-09-03T17:02:42.167Z,19.13
2022-09-03T17:05:29.000Z,19.04
2022-09-03T17:08:18.810Z,18.94
2022-09-03T17:10:49.560Z,18.85
2022-09-03T17:13:41.935Z,18.77
2022-09-03T17:16:24.684Z,18.68
2022-09-03T17:19:16.828Z,18.60
2022-09-03T17:22:11.060Z,18.52
2022-09-03T17:24:47.934Z,18.43
2022-09-03T17:27:28.089Z,18.35
2022-09-03T17:30:00.466Z,18.28
2022-09-03T17:32:27.696Z,18.21
2022-09-03T17:35:20.677Z,18.14
2022-09-03T17:37:56.922Z,18.05
2022-09-03T17:40:47.078Z,17.96
2022-09-03T17:43:36.054Z,17.87
2022-09-03T17:47:01.174Z,17.80
2022-09-03T17:49:32.330Z,17.69
2022-09-03T17:52:06.875Z,17.61
2022-09-03T17:54:36.650Z,17.51
2022-09-03T17:57:32.059Z,17.40
2022-09-03T18:00:08.082Z,17.27
2022-09-03T18:02:39.308Z,17.16
2022-09-03T18:05:18.507Z,17.05
2022-09-03T18:08:05.666Z,16.96
2022-09-03T18:10:43.823Z,16.88
2022-09-03T18:13:23.960Z,16.80
2022-09-03T18:15:59.816Z,16.72
2022-09-03T18:18:32.622Z,16.64
2022-09-03T18:21:31.495Z,16.58
2022-09-03T18:24:30.606Z,16.51
2022-09-03T18:27:19.465Z,16.44
2022-09-03T18:30:20.609Z,16.37
2022-09-03T18:33:05.757Z,16.28
2022-09-03T18:35:52.646Z,16.20
2022-09-03T18:38:44.468Z,16.13
2022-09-03T18:42:00.443Z,16.06
2022-09-03T18:45:06.703Z,15.98
2022-09-03T18:48:20.893Z,15.91
2022-09-03T18:51:31.295Z,15.86
2022-09-03T18:54:56.762Z,15.82
2022-09-03T18:57:48.966Z,15.76
2022-09-03T19:00:35.066Z,15.72
2022-09-03T19:03:28.326Z,15.70
2022-09-03T19:06:35.394Z,15.66
2022-09-03T19:09:46.288Z,15.60
2022-09-03T19:12:58.917Z,15.53
2022-09-03T19:16:10.434Z,15.46
2022-09-03T19:19:15.105Z,15.38
2022-09-03T19:22:07.966Z,15.31
2022-09-03T19:24:53.848Z,15.24
2022-09-03T19:28:10.249Z,15.18
2022-09-03T19:31:36.905Z,15.10
2022-09-03T19:34:35.486Z,15.04
2022-09-03T19:37:24.130Z,15.02
2022-09-03T19:40:21.208Z,14.98
2022-09-03T19:43:36.852Z,14.94
2022-09-03T19:46:41.692Z,14.89
2022-09-03T19:49:35.170Z,14.81
2022-09-03T19:52:43.189Z,14.74
2022-09-03T19:55:31.833Z,14.68
2022-09-03T19:58:39.607Z,14.64
2022-09-03T20:01:30.702Z,14.59
2022-09-03T20:04:19.822Z,14.54
2022-09-03T20:07:06.307Z,14.50
2022-09-03T20:09:57.728Z,14.45
2022-09-03T20:12:29.054Z,14.43
2022-09-03T20:14:56.225Z,14.41
2022-09-03T20:17:35.785Z,14.39
2022-09-03T20:20:26.176Z,14.36
2022-09-03T20:23:03.862Z,14.34
2022-09-03T20:26:10.422Z,14.32
2022-09-03T20:29:13.328Z,14.30
2022-09-03T20:31:51.026Z,14.26
2022-09-03T20:34:53.325Z,14.24
2022-09-03T20:37:38.369Z,14.22
2022-09-03T20:40:41.066Z,14.20
2022-09-03T20:43:33.097Z,14.14
2022-09-03T20:46:26.512Z,14.11
2022-09-03T20:49:12.756Z,14.08
2022-09-03T20:51:53.115Z,14.05
2022-09-03T20:54:32.343Z,14.01
2022-09-03T20:57:14.349Z,13.96
2022-09-03T20:59:56.223Z,13.93
2022-09-03T21:02:29.022Z,13.88
2022-09-03T21:05:17.251Z,13.82
2022-09-03T21:07:57.629Z,13.77
2022-09-03T21:10:41.348Z,13.70
2022-09-03T21:13:17.039Z,13.64
2022-09-03T21:15:48.114Z,13.60
2022-09-03T21:18:41.399Z,13.57
2022-09-03T21:21:25.963Z,13.53
2022-09-03T21:24:20.819Z,13.49
2022-09-03T21:26:51.942Z,13.43
2022-09-03T21:29:39.123Z,13.39
2022-09-03T21:32:24.725Z,13.35
2022-09-03T21:35:11.768Z,13.32
2022-09-03T21:37:39.763Z,13.28
2022-09-03T21:40:08.201Z,13.26
2022-09-03T21:42:46.170Z,13.23
2022-09-03T21:45:14.958Z,13.21
2022-09-03T21:47:45.084Z,13.18
2022-09-03T21:50:18.266Z,13.15
2022-09-03T21:52:51.208Z,13.12
2022-09-03T21:55:21.409Z,13.08
2022-09-03T21:58:02.859Z,13.06
2022-09-03T22:00:32.432Z,13.04
2022-09-03T22:03:00.353Z,13.01
2022-09-03T22:06:13.166Z,12.98
2022-09-03T22:08:53.356Z,12.93
2022-09-03T22:11:28.899Z,12.90
2022-09-03T22:14:07.880Z,12.87
2022-09-03T22:16:59.988Z,12.83
2022-09-03T22:19:28.091Z,12.77
2022-09-03T22:21:59.684Z,12.75
2022-09-03T22:24:41.815Z,12.71
2022-09-03T22:27:44.326Z,12.67
2022-09-03T22:30:14.142Z,12.63
2022-09-03T22:32:55.025Z,12.59
2022-09-03T22:35:24.614Z,12.55
2022-09-03T22:38:24.969Z,12.50
2022-09-03T22:40:59.977Z,12.47
2022-09-03T22:43:40.146Z,12.46
2022-09-03T22:46:12.690Z,12.45
2022-09-03T22:49:11.711Z,12.45
2022-09-03T22:52:03.836Z,12.44
2022-09-03T22:55:04.165Z,12.42
2022-09-03T22:57:34.288Z,12.40
2022-09-03T23:00:11.519Z,12.37
2022-09-03T23:02:38.624Z,12.34
2022-09-03T23:05:07.199Z,12.30
2022-09-03T23:07:39.586Z,12.28
2022-09-03T23:10:14.624Z,12.25
2022-09-03T23:12:58.860Z,12.22
2022-09-03T23:15:30.108Z,12.21
2022-09-03T23:18:10.976Z,12.20
2022-09-03T23:20:42.578Z,12.18
2022-09-03T23:23:22.592Z,12.17
2022-09-03T23:25:59.336Z,12.15
2022-09-03T23:28:36.869Z,12.14
2022-09-03T23:31:29.548Z,12.10
2022-09-03T23:33:57.266Z,12.05
2022-09-03T23:37:10.363Z,12.01
2022-09-03T23:40:01.050Z,11.97
2022-09-03T23:42:30.592Z,11.92
2022-09-03T23:45:15.681Z,11.89
2022-09-03T23:47:51.597Z,11.88
2022-09-03T23:50:46.428Z,11.87
2022-09-03T23:53:50.028Z,11.85
2022-09-03T23:56:30.684Z,11.83
2022-09-03T23:59:29.479Z,11.80
